Portland, Oregon
Traffic Map
Current Weather Conditions
Portland, Oregon
Few Clouds
Few Clouds
69°
Feels Like: 69°
Wind Chill: 69° Ceiling: Unl
Heat Index: 69° Visibility: 10mi
Dew Point: 53° Wind: 10mph
Humidity: 57% Direction: 330° (NNW)
Pressure: 30.1in Gusts: 0mph
Raw Report DataKPDX 010353Z 33009KT 10SM FEW045 FEW250 21/12 A3010 RMK AO2 SLP193 T02060117
Traffic Incident Summary
Active as of:
Severity:
Category:
InformationThere was an issue retrieving the traffic information for this location. Please try a different location or try again shortly.
Advertisements
Track Severe Weather on mobile